Felts Field
KSFF : rendu visible

Aérodrome :











RETROUVEZ-NOUS SUR...

 
LOGIN :

S'inscrire | Disclaimer

   EN    FR    IT 

 









Légende :    VFR   VFR Marginal   IFR   IFR Intensif   IFR Très Intensif
Visi : 
Plafond : 
>= 8 km
>= 3000ft
5 à 8 km
1000 à 3000 ft
1500m à 5 km
500 à 1000 ft
800 à 1500m
200 à 500 ft
< 800m
< 200 ft
Symboles :   Orages  Brouillard  Fortes neiges  Fortes précipitations  Vent > 20 kt






- Altitude de l'aérodrome : 1953 ft


KSFF - Felts Field

DERNIER METAR :
  • 041953Z AUTO 21013G20KT 10SM BKN075 20/02 A2996 RMK AO2 SLP138 T02000022

METARs EXPIRÉS :
  • 041853Z 22015G22KT 10SM FEW050 20/03 A2997 RMK AO2 SLP141 T02000033 $
  • 041753Z 23012G17KT 10SM CLR 19/03 A2997 RMK AO2 SLP140 T01890033 10189 20122 51007

TAF KSFF
Valide du 04 à 18h jusqu'au 05 à 18h UTC


041723Z 0418/0518 22009KT P6SM SCT080 SCT120 SCT200
FM050400 16004KT P6SM BKN150 BKN200
FM050900 04002KT P6SM OVC150
FM051500 VRB03KT P6SM OVC120
FIR KZSE / Amérique du Nord



MET'MAP, la Météo Aéronautique d'un coup d'oeil ! - Copyright ORBIFLY Décembre 2007 - Disclaimer

ORBIFLY MET'MAP TEAM :

Programmation & Développement : Alexandra Zaïnal
Sur une idée originale de : Baudouin d'Aumeries
Assistance à la programmation : Marc-Olivier Méhu
Soutien technique & logistique : Manuel Goepfert

Contact : metmap@orbifly.com




SOURCES & CREDITS :

   NOAA       Earth
Advisory